createdAt,value
2022-11-21T00:01:20.105Z,99697.01
2022-11-21T00:03:48.552Z,99689.65
2022-11-21T00:06:17.367Z,99689.57
2022-11-21T00:08:45.541Z,99683.99
2022-11-21T00:11:13.313Z,99681.66
2022-11-21T00:13:41.366Z,99678.69
2022-11-21T00:16:11.866Z,99679.02
2022-11-21T00:18:40.034Z,99674.33
2022-11-21T00:21:19.154Z,99673.54
2022-11-21T00:23:47.990Z,99673.39
2022-11-21T00:26:16.736Z,99668.87
2022-11-21T00:28:45.536Z,99670.00
2022-11-21T00:31:21.765Z,99671.00
2022-11-21T00:33:49.439Z,99662.72
2022-11-21T00:36:17.294Z,99659.45
2022-11-21T00:38:44.926Z,99658.25
2022-11-21T00:41:12.512Z,99653.93
2022-11-21T00:43:40.104Z,99650.63
2022-11-21T00:46:07.672Z,99649.85
2022-11-21T00:48:35.235Z,99650.99
2022-11-21T00:51:02.823Z,99660.92
2022-11-21T00:53:30.664Z,99661.91
2022-11-21T00:55:58.417Z,99657.67
2022-11-21T00:58:26.722Z,99650.66
2022-11-21T01:01:12.533Z,99650.38
2022-11-21T01:03:41.314Z,99651.77
2022-11-21T01:06:14.796Z,99652.19
2022-11-21T01:08:44.638Z,99650.75
2022-11-21T01:11:16.341Z,99651.27
2022-11-21T01:13:44.254Z,99641.95
2022-11-21T01:16:15.541Z,99636.60
2022-11-21T01:18:43.566Z,99635.65
2022-11-21T01:21:18.137Z,99634.87
2022-11-21T01:23:46.459Z,99635.67
2022-11-21T01:26:19.734Z,99632.39
2022-11-21T01:28:47.880Z,99640.15
2022-11-21T01:31:26.701Z,99641.92
2022-11-21T01:33:56.410Z,99641.21
2022-11-21T01:36:29.785Z,99641.11
2022-11-21T01:39:00.279Z,99634.75
2022-11-21T01:41:30.921Z,99629.45
2022-11-21T01:43:58.574Z,99623.49
2022-11-21T01:46:27.061Z,99615.98
2022-11-21T01:48:58.066Z,99609.83
2022-11-21T01:51:44.245Z,99613.64
2022-11-21T01:54:11.777Z,99612.60
2022-11-21T01:56:51.004Z,99616.02
2022-11-21T01:59:31.260Z,99615.23
2022-11-21T02:02:01.534Z,99617.57
2022-11-21T02:04:32.699Z,99624.99
2022-11-21T02:07:03.497Z,99632.16
2022-11-21T02:09:33.144Z,99628.86
2022-11-21T02:12:16.398Z,99628.91
2022-11-21T02:14:44.590Z,99627.13
2022-11-21T02:17:12.224Z,99621.15
2022-11-21T02:19:58.224Z,99615.55
2022-11-21T02:22:38.077Z,99617.00
2022-11-21T02:25:12.209Z,99610.14
2022-11-21T02:27:40.026Z,99605.34
2022-11-21T02:30:10.137Z,99599.04
2022-11-21T02:32:42.435Z,99594.63
2022-11-21T02:35:10.078Z,99602.27
2022-11-21T02:37:37.851Z,99595.92
2022-11-21T02:40:10.138Z,99599.22
2022-11-21T02:42:46.795Z,99591.48
2022-11-21T02:45:23.681Z,99593.55
2022-11-21T02:47:58.127Z,99600.63
2022-11-21T02:50:35.019Z,99603.74
2022-11-21T02:53:04.020Z,99600.15
2022-11-21T02:55:31.941Z,99605.48
2022-11-21T02:58:04.650Z,99609.25
2022-11-21T03:00:35.116Z,99610.56
2022-11-21T03:03:03.106Z,99613.85
2022-11-21T03:05:31.476Z,99613.39
2022-11-21T03:07:59.107Z,99611.98
2022-11-21T03:10:26.838Z,99613.52
2022-11-21T03:12:54.522Z,99608.04
2022-11-21T03:15:22.148Z,99603.01
2022-11-21T03:17:49.729Z,99603.20
2022-11-21T03:20:17.292Z,99602.67
2022-11-21T03:22:44.863Z,99601.14
2022-11-21T03:25:12.411Z,99599.54
2022-11-21T03:27:39.955Z,99598.14
2022-11-21T03:30:08.325Z,99600.26
2022-11-21T03:32:35.913Z,99596.39
2022-11-21T03:35:03.649Z,99592.66
2022-11-21T03:37:31.279Z,99586.30
2022-11-21T03:39:58.833Z,99584.11
2022-11-21T03:42:26.402Z,99582.10
2022-11-21T03:44:53.986Z,99579.34
2022-11-21T03:47:21.528Z,99576.69
2022-11-21T03:49:49.159Z,99578.69
2022-11-21T03:52:16.743Z,99580.47
2022-11-21T03:54:44.300Z,99571.82
2022-11-21T03:57:11.997Z,99575.27
2022-11-21T03:59:39.577Z,99577.06
2022-11-21T04:02:07.202Z,99572.98
2022-11-21T04:04:34.814Z,99570.11
2022-11-21T04:07:02.438Z,99574.42
2022-11-21T04:09:30.034Z,99584.14
2022-11-21T04:11:57.609Z,99581.31
2022-11-21T04:14:25.686Z,99571.52
2022-11-21T04:16:53.527Z,99571.02
2022-11-21T04:19:21.082Z,99569.53
2022-11-21T04:21:48.648Z,99570.45
2022-11-21T04:24:16.224Z,99563.14
2022-11-21T04:26:43.805Z,99564.23
2022-11-21T04:29:11.366Z,99566.89
2022-11-21T04:31:39.075Z,99564.55
2022-11-21T04:34:06.644Z,99560.84
2022-11-21T04:36:34.330Z,99557.56
2022-11-21T04:39:01.957Z,99551.83
2022-11-21T04:41:29.660Z,99546.62
2022-11-21T04:43:57.256Z,99553.38
2022-11-21T04:46:24.884Z,99558.05
2022-11-21T04:48:52.433Z,99551.36
2022-11-21T04:51:20.007Z,99548.52
2022-11-21T04:53:47.603Z,99540.65
2022-11-21T04:56:15.629Z,99538.81
2022-11-21T04:58:44.304Z,99536.06
2022-11-21T05:01:12.388Z,99533.36
2022-11-21T05:03:40.042Z,99533.43
2022-11-21T05:06:08.098Z,99536.38
2022-11-21T05:08:35.682Z,99520.11
2022-11-21T05:11:03.262Z,99521.27
2022-11-21T05:13:30.861Z,99519.19
2022-11-21T05:15:58.612Z,99523.73
2022-11-21T05:18:26.252Z,99525.60
2022-11-21T05:20:53.841Z,99531.95
2022-11-21T05:23:21.414Z,99532.17
2022-11-21T05:25:49.008Z,99532.04
2022-11-21T05:28:16.636Z,99534.90
2022-11-21T05:30:44.213Z,99534.79
2022-11-21T05:33:11.957Z,99532.02
2022-11-21T05:35:43.210Z,99526.27
2022-11-21T05:38:11.771Z,99523.61
2022-11-21T05:40:39.681Z,99523.63
2022-11-21T05:43:07.331Z,99520.41
2022-11-21T05:45:36.352Z,99517.02
2022-11-21T05:48:04.156Z,99517.19
2022-11-21T05:50:31.885Z,99518.82
2022-11-21T05:53:02.514Z,99511.80
2022-11-21T05:55:30.904Z,99509.05
2022-11-21T05:57:59.328Z,99507.42
2022-11-21T06:00:28.285Z,99515.27
2022-11-21T06:02:55.936Z,99515.16
2022-11-21T06:05:23.607Z,99506.46
2022-11-21T06:07:51.197Z,99506.35
2022-11-21T06:10:18.876Z,99513.14
2022-11-21T06:12:46.485Z,99512.05
2022-11-21T06:15:14.115Z,99515.31
2022-11-21T06:17:41.678Z,99520.58
2022-11-21T06:20:10.093Z,99523.27
2022-11-21T06:22:37.697Z,99531.42
2022-11-21T06:25:05.707Z,99526.70
2022-11-21T06:27:33.275Z,99526.31
2022-11-21T06:30:00.870Z,99521.35
2022-11-21T06:32:28.520Z,99525.48
2022-11-21T06:34:56.162Z,99531.36
2022-11-21T06:37:23.931Z,99527.84
2022-11-21T06:39:51.530Z,99536.05
2022-11-21T06:42:19.156Z,99537.39
2022-11-21T06:44:46.716Z,99543.38
2022-11-21T06:47:14.291Z,99549.13
2022-11-21T06:49:41.900Z,99547.34
2022-11-21T06:52:09.521Z,99550.37
2022-11-21T06:54:37.096Z,99550.79
2022-11-21T06:57:04.674Z,99556.23
2022-11-21T06:59:32.392Z,99559.58
2022-11-21T07:02:00.412Z,99570.55
2022-11-21T07:04:28.207Z,99569.73
2022-11-21T07:06:55.977Z,99573.15
2022-11-21T07:09:33.472Z,99580.11
2022-11-21T07:12:02.377Z,99578.77
2022-11-21T07:14:29.940Z,99584.73
2022-11-21T07:16:57.570Z,99578.77
2022-11-21T07:19:25.290Z,99575.65
2022-11-21T07:21:53.006Z,99578.48
2022-11-21T07:24:20.614Z,99575.16
2022-11-21T07:26:48.154Z,99572.13
2022-11-21T07:29:15.731Z,99571.88
2022-11-21T07:31:43.284Z,99573.41
2022-11-21T07:34:10.952Z,99575.46
2022-11-21T07:36:38.668Z,99571.64
2022-11-21T07:39:06.460Z,99575.56
2022-11-21T07:41:34.043Z,99576.24
2022-11-21T07:44:01.707Z,99577.45
2022-11-21T07:46:29.407Z,99579.84
2022-11-21T07:49:01.985Z,99578.24
2022-11-21T07:51:31.397Z,99578.33
2022-11-21T07:53:59.232Z,99583.98
2022-11-21T07:56:26.866Z,99586.38
2022-11-21T07:58:54.426Z,99581.96
2022-11-21T08:01:22.162Z,99583.55
2022-11-21T08:03:49.829Z,99584.58
2022-11-21T08:06:17.402Z,99585.23
2022-11-21T08:08:45.571Z,99588.52
2022-11-21T08:11:13.198Z,99590.92
2022-11-21T08:13:40.778Z,99596.73
2022-11-21T08:16:08.365Z,99596.23
2022-11-21T08:18:35.971Z,99601.31
2022-11-21T08:21:04.524Z,99600.27
2022-11-21T08:23:32.502Z,99600.31
2022-11-21T08:26:00.336Z,99600.90
2022-11-21T08:28:28.132Z,99601.54
2022-11-21T08:30:55.715Z,99608.34
2022-11-21T08:33:23.533Z,99610.45
2022-11-21T08:35:51.183Z,99610.92
2022-11-21T08:38:18.750Z,99614.48
2022-11-21T08:40:46.319Z,99612.81
2022-11-21T08:43:13.901Z,99616.73
2022-11-21T08:45:41.643Z,99618.67
2022-11-21T08:48:11.162Z,99615.16
2022-11-21T08:50:39.139Z,99619.31
2022-11-21T08:53:06.764Z,99620.84
2022-11-21T08:55:34.334Z,99621.54
2022-11-21T08:58:01.901Z,99620.93
2022-11-21T09:00:29.469Z,99626.82
2022-11-21T09:02:57.091Z,99626.91
2022-11-21T09:05:24.665Z,99625.00
2022-11-21T09:07:59.180Z,99624.86
2022-11-21T09:10:27.526Z,99624.23
2022-11-21T09:12:58.452Z,99623.16
2022-11-21T09:15:26.076Z,99624.91
2022-11-21T09:17:53.684Z,99619.32
2022-11-21T09:20:21.329Z,99619.25
2022-11-21T09:22:48.962Z,99610.89
2022-11-21T09:25:16.641Z,99608.23
2022-11-21T09:27:44.212Z,99596.92
2022-11-21T09:30:13.316Z,99602.05
2022-11-21T09:32:40.879Z,99598.54
2022-11-21T09:35:09.010Z,99597.63
2022-11-21T09:37:37.914Z,99596.44
2022-11-21T09:40:06.215Z,99594.41
2022-11-21T09:42:55.506Z,99600.12
2022-11-21T09:45:30.123Z,99591.66
2022-11-21T09:47:57.778Z,99592.52
2022-11-21T09:50:33.052Z,99594.55
2022-11-21T09:53:09.934Z,99594.73
2022-11-21T09:55:51.983Z,99595.10
2022-11-21T09:58:23.559Z,99593.95
2022-11-21T10:00:55.023Z,99590.79
2022-11-21T10:03:26.225Z,99586.83
2022-11-21T10:06:03.653Z,99591.69
2022-11-21T10:08:43.173Z,99588.17
2022-11-21T10:11:19.754Z,99589.73
2022-11-21T10:14:03.082Z,99594.96
2022-11-21T10:17:21.689Z,99597.18
2022-11-21T10:20:15.383Z,99590.20
2022-11-21T10:23:09.383Z,99590.89
2022-11-21T10:25:38.383Z,99590.64
2022-11-21T10:28:22.846Z,99588.42
2022-11-21T10:30:52.481Z,99587.25
2022-11-21T10:33:34.347Z,99579.59
2022-11-21T10:36:12.146Z,99569.41
2022-11-21T10:38:43.164Z,99566.98
2022-11-21T10:41:44.535Z,99564.02
2022-11-21T10:44:26.287Z,99559.77
2022-11-21T10:46:59.756Z,99556.55
2022-11-21T10:49:32.373Z,99556.58
2022-11-21T10:52:13.666Z,99557.67
2022-11-21T10:55:12.153Z,99553.70
2022-11-21T10:57:52.546Z,99549.89
2022-11-21T11:00:26.717Z,99555.60
2022-11-21T11:02:55.321Z,99554.20
2022-11-21T11:05:25.631Z,99555.23
2022-11-21T11:08:11.524Z,99554.15
2022-11-21T11:11:01.711Z,99550.13
2022-11-21T11:13:47.533Z,99550.52
2022-11-21T11:16:19.729Z,99549.66
2022-11-21T11:18:59.249Z,99544.08
2022-11-21T11:21:40.596Z,99544.41
2022-11-21T11:24:13.958Z,99542.94
2022-11-21T11:26:48.512Z,99543.15
2022-11-21T11:29:24.606Z,99538.12
2022-11-21T11:31:54.562Z,99536.16
2022-11-21T11:34:23.988Z,99534.11
2022-11-21T11:37:10.412Z,99527.34
2022-11-21T11:39:53.255Z,99525.21
2022-11-21T11:42:27.010Z,99521.29
2022-11-21T11:45:03.687Z,99515.81
2022-11-21T11:47:38.095Z,99508.45
2022-11-21T11:50:29.358Z,99510.19
2022-11-21T11:53:11.569Z,99503.27
2022-11-21T11:55:47.347Z,99501.98
2022-11-21T11:58:32.021Z,99496.17
2022-11-21T12:01:35.354Z,99487.79
2022-11-21T12:04:13.490Z,99483.66
2022-11-21T12:07:35.984Z,99483.71
2022-11-21T12:09:45.561Z,99484.44
2022-11-21T12:12:33.685Z,99480.58
2022-11-21T12:15:19.978Z,99479.95
2022-11-21T12:18:06.056Z,99473.80
2022-11-21T12:20:57.299Z,99470.69
2022-11-21T12:23:50.493Z,99469.52
2022-11-21T12:26:24.989Z,99462.26
2022-11-21T12:28:58.156Z,99453.90
2022-11-21T12:31:57.058Z,99448.08
2022-11-21T12:34:39.709Z,99454.64
2022-11-21T12:37:28.617Z,99448.68
2022-11-21T12:40:34.087Z,99447.23
2022-11-21T12:43:51.925Z,99450.95
2022-11-21T12:46:31.826Z,99450.34
2022-11-21T12:49:23.088Z,99450.98
2022-11-21T12:52:08.990Z,99453.35
2022-11-21T12:55:10.295Z,99449.20
2022-11-21T12:58:02.937Z,99442.61
2022-11-21T13:01:02.969Z,99446.66
2022-11-21T13:04:09.566Z,99448.13
2022-11-21T13:06:41.591Z,99449.10
2022-11-21T13:09:15.636Z,99447.64
2022-11-21T13:12:10.493Z,99445.58
2022-11-21T13:15:04.637Z,99442.86
2022-11-21T13:17:32.200Z,99446.92
2022-11-21T13:20:12.009Z,99455.64
2022-11-21T13:22:39.562Z,99452.73
2022-11-21T13:25:29.777Z,99455.66
2022-11-21T13:28:19.015Z,99453.88
2022-11-21T13:30:56.866Z,99456.98
2022-11-21T13:33:36.418Z,99452.48
2022-11-21T13:36:10.958Z,99449.19
2022-11-21T13:38:50.568Z,99453.14
2022-11-21T13:41:36.220Z,99451.41
2022-11-21T13:44:31.553Z,99448.94
2022-11-21T13:47:12.202Z,99450.48
2022-11-21T13:50:13.525Z,99455.16
2022-11-21T13:53:08.035Z,99457.95
2022-11-21T13:55:41.289Z,99464.21
2022-11-21T13:58:50.171Z,99465.08
2022-11-21T14:01:29.525Z,99467.33
2022-11-21T14:04:22.064Z,99465.73
2022-11-21T14:06:49.761Z,99463.59
2022-11-21T14:09:22.438Z,99468.23
2022-11-21T14:12:19.605Z,99460.38
2022-11-21T14:15:07.487Z,99460.51
2022-11-21T14:17:55.362Z,99456.47
2022-11-21T14:20:32.827Z,99458.66
2022-11-21T14:23:03.831Z,99463.98
2022-11-21T14:25:47.286Z,99460.64
2022-11-21T14:28:22.976Z,99455.91
2022-11-21T14:30:58.291Z,99456.03
2022-11-21T14:33:27.447Z,99455.13
2022-11-21T14:36:25.045Z,99454.05
2022-11-21T14:42:00.686Z,99453.09
2022-11-21T14:44:28.692Z,99461.70
2022-11-21T14:47:23.103Z,99464.42
2022-11-21T14:49:55.234Z,99471.79
2022-11-21T14:52:29.344Z,99478.51
2022-11-21T14:55:28.939Z,99485.52
2022-11-21T14:57:47.556Z,99482.45
2022-11-21T15:03:21.363Z,99481.98
2022-11-21T15:06:07.298Z,99484.52
2022-11-21T15:11:42.510Z,99492.92
2022-11-21T15:14:23.828Z,99495.48
2022-11-21T15:16:53.312Z,99491.64
2022-11-21T15:19:23.463Z,99494.20
2022-11-21T15:21:54.157Z,99492.30
2022-11-21T15:24:33.817Z,99497.65
2022-11-21T15:27:01.574Z,99497.13
2022-11-21T15:29:30.983Z,99505.81
2022-11-21T15:32:16.307Z,99504.27
2022-11-21T15:34:44.517Z,99503.44
2022-11-21T15:37:16.130Z,99503.34
2022-11-21T15:39:45.838Z,99508.94
2022-11-21T15:42:35.590Z,99514.89
2022-11-21T15:45:20.031Z,99517.19
2022-11-21T15:48:03.530Z,99515.86
2022-11-21T15:50:31.306Z,99521.80
2022-11-21T15:52:58.857Z,99521.66
2022-11-21T15:55:27.851Z,99523.08
2022-11-21T15:57:55.556Z,99527.27
2022-11-21T16:00:23.322Z,99525.20
2022-11-21T16:02:50.961Z,99526.78
2022-11-21T16:05:18.794Z,99522.11
2022-11-21T16:07:48.474Z,99523.16
2022-11-21T16:10:21.261Z,99527.19
2022-11-21T16:12:50.661Z,99525.64
2022-11-21T16:15:20.703Z,99526.73
2022-11-21T16:17:48.300Z,99522.07
2022-11-21T16:20:16.052Z,99520.34
2022-11-21T16:22:47.469Z,99509.42
2022-11-21T16:25:16.389Z,99502.48
2022-11-21T16:27:44.787Z,99497.12
2022-11-21T16:30:13.905Z,99495.73
2022-11-21T16:32:42.520Z,99502.17
2022-11-21T16:35:12.474Z,99498.03
2022-11-21T16:37:40.946Z,99490.39
2022-11-21T16:40:10.274Z,99488.66
2022-11-21T16:42:38.563Z,99492.45
2022-11-21T16:45:06.762Z,99492.09
2022-11-21T16:47:36.888Z,99490.89
2022-11-21T16:50:05.442Z,99489.16
2022-11-21T16:52:34.921Z,99493.69
2022-11-21T16:55:03.320Z,99500.48
2022-11-21T16:57:34.229Z,99494.98
2022-11-21T17:00:03.981Z,99492.22
2022-11-21T17:02:31.937Z,99489.82
2022-11-21T17:05:00.291Z,99491.38
2022-11-21T17:07:28.778Z,99492.06
2022-11-21T17:09:58.681Z,99491.22
2022-11-21T17:12:31.185Z,99491.73
2022-11-21T17:15:10.502Z,99492.27
2022-11-21T17:17:38.890Z,99493.50
2022-11-21T17:20:10.006Z,99492.45
2022-11-21T17:22:37.649Z,99501.30
2022-11-21T17:25:05.670Z,99504.21
2022-11-21T17:27:33.288Z,99512.67
2022-11-21T17:30:00.856Z,99513.48
2022-11-21T17:32:28.447Z,99512.89
2022-11-21T17:34:56.017Z,99512.98
2022-11-21T17:37:23.646Z,99511.34
2022-11-21T17:39:51.213Z,99514.73
2022-11-21T17:42:18.774Z,99517.59
2022-11-21T17:44:47.087Z,99520.31
2022-11-21T17:47:14.732Z,99521.48
2022-11-21T17:49:42.355Z,99522.46
2022-11-21T17:52:10.079Z,99517.39
2022-11-21T17:54:37.719Z,99519.98
2022-11-21T17:57:05.311Z,99524.44
2022-11-21T17:59:34.008Z,99526.67
2022-11-21T18:02:01.771Z,99523.70
2022-11-21T18:04:30.023Z,99518.52
2022-11-21T18:06:57.820Z,99520.24
2022-11-21T18:09:25.397Z,99518.70
2022-11-21T18:11:53.212Z,99522.70
2022-11-21T18:14:20.881Z,99520.45
2022-11-21T18:16:53.290Z,99520.78
2022-11-21T18:19:21.317Z,99518.33
2022-11-21T18:21:48.897Z,99518.12
2022-11-21T18:24:16.501Z,99514.83
2022-11-21T18:26:44.129Z,99511.36
2022-11-21T18:31:59.412Z,99508.98
2022-11-21T18:34:27.076Z,99509.86
2022-11-21T18:36:54.710Z,99509.69
2022-11-21T18:39:22.579Z,99510.05
2022-11-21T18:41:50.189Z,99509.03
2022-11-21T18:44:21.893Z,99504.89
2022-11-21T18:46:50.265Z,99509.41
2022-11-21T18:49:18.212Z,99506.13
2022-11-21T18:51:46.070Z,99508.38
2022-11-21T18:54:13.702Z,99511.85
2022-11-21T18:56:41.388Z,99508.56
2022-11-21T18:59:09.224Z,99508.77
2022-11-21T19:01:37.802Z,99505.32
2022-11-21T19:04:05.679Z,99508.12
2022-11-21T19:06:33.576Z,99505.52
2022-11-21T19:09:01.422Z,99504.48
2022-11-21T19:11:29.897Z,99503.75
2022-11-21T19:13:59.224Z,99506.14
2022-11-21T19:16:28.851Z,99509.94
2022-11-21T19:19:33.544Z,99507.69
2022-11-21T19:21:44.740Z,99507.88
2022-11-21T19:24:14.351Z,99506.48
2022-11-21T19:26:42.626Z,99504.05
2022-11-21T19:29:11.052Z,99503.83
2022-11-21T19:31:44.600Z,99502.43
2022-11-21T19:34:14.632Z,99511.25
2022-11-21T19:36:42.855Z,99516.09
2022-11-21T19:39:11.086Z,99518.69
2022-11-21T19:41:38.842Z,99516.59
2022-11-21T19:44:06.901Z,99519.21
2022-11-21T19:46:36.505Z,99513.15
2022-11-21T19:49:06.205Z,99512.08
2022-11-21T19:51:37.412Z,99516.78
2022-11-21T19:54:06.326Z,99516.76
2022-11-21T19:56:35.124Z,99515.73
2022-11-21T19:59:04.405Z,99520.39
2022-11-21T20:01:34.782Z,99521.94
2022-11-21T20:04:06.187Z,99520.36
2022-11-21T20:06:37.214Z,99522.77
2022-11-21T20:09:06.847Z,99526.17
2022-11-21T20:11:35.974Z,99531.66
2022-11-21T20:14:04.583Z,99529.23
2022-11-21T20:16:36.367Z,99533.23
2022-11-21T20:19:10.135Z,99535.80
2022-11-21T20:21:38.890Z,99537.89
2022-11-21T20:24:07.293Z,99537.39
2022-11-21T20:26:35.909Z,99532.08
2022-11-21T20:29:04.784Z,99528.81
2022-11-21T20:31:35.968Z,99528.85
2022-11-21T20:34:09.915Z,99529.88
2022-11-21T20:36:37.500Z,99530.17
2022-11-21T20:39:08.443Z,99523.90
2022-11-21T20:41:37.063Z,99529.23
2022-11-21T20:47:06.328Z,99529.41
2022-11-21T20:49:34.063Z,99523.00
2022-11-21T20:54:49.229Z,99516.77
2022-11-21T20:57:16.914Z,99514.55
2022-11-21T20:59:44.471Z,99518.39
2022-11-21T21:02:12.210Z,99518.21
2022-11-21T21:04:40.066Z,99514.90
2022-11-21T21:07:07.882Z,99518.52
2022-11-21T21:09:35.882Z,99513.83
2022-11-21T21:12:04.104Z,99512.27
2022-11-21T21:14:31.836Z,99508.80
2022-11-21T21:16:59.409Z,99506.05
2022-11-21T21:19:27.391Z,99498.42
2022-11-21T21:21:55.243Z,99501.02
2022-11-21T21:24:24.076Z,99497.50
2022-11-21T21:26:51.641Z,99485.86
2022-11-21T21:29:21.104Z,99478.17
2022-11-21T21:31:52.767Z,99473.95
2022-11-21T21:34:22.360Z,99463.34
2022-11-21T21:36:50.996Z,99466.06
2022-11-21T21:39:18.764Z,99467.20
2022-11-21T21:41:47.531Z,99470.79
2022-11-21T21:44:16.235Z,99459.48
2022-11-21T21:46:44.117Z,99458.75
2022-11-21T21:49:12.377Z,99453.71
2022-11-21T21:51:41.480Z,99460.47
2022-11-21T21:54:17.169Z,99460.95
2022-11-21T21:56:45.628Z,99458.49
2022-11-21T21:59:14.198Z,99460.31
2022-11-21T22:01:42.408Z,99461.10
2022-11-21T22:04:11.369Z,99463.27
2022-11-21T22:06:41.350Z,99463.58
2022-11-21T22:09:11.116Z,99462.36
2022-11-21T22:11:38.891Z,99465.29
2022-11-21T22:14:10.940Z,99460.25
2022-11-21T22:16:39.726Z,99465.59
2022-11-21T22:19:10.690Z,99468.02
2022-11-21T22:21:39.491Z,99473.31
2022-11-21T22:24:25.350Z,99476.73
2022-11-21T22:26:53.808Z,99476.63
2022-11-21T22:29:21.451Z,99476.89
2022-11-21T22:31:49.016Z,99478.41
2022-11-21T22:34:16.647Z,99479.34
2022-11-21T22:36:44.227Z,99482.31
2022-11-21T22:39:11.939Z,99485.98
2022-11-21T22:41:39.554Z,99492.30
2022-11-21T22:44:07.129Z,99498.79
2022-11-21T22:46:35.089Z,99500.92
2022-11-21T22:49:02.687Z,99497.57
2022-11-21T22:51:30.353Z,99492.71
2022-11-21T22:53:57.907Z,99492.39
2022-11-21T22:56:26.128Z,99492.58
2022-11-21T22:58:54.436Z,99487.25
2022-11-21T23:01:24.110Z,99483.48
2022-11-21T23:03:52.261Z,99484.23
2022-11-21T23:06:22.418Z,99481.36
2022-11-21T23:08:50.816Z,99478.77
2022-11-21T23:11:21.708Z,99475.35
2022-11-21T23:13:49.520Z,99469.36
2022-11-21T23:16:17.401Z,99464.20
2022-11-21T23:18:45.559Z,99458.54
2022-11-21T23:21:14.435Z,99456.30
2022-11-21T23:23:42.216Z,99457.57
2022-11-21T23:26:10.884Z,99451.88
2022-11-21T23:28:38.616Z,99449.66
2022-11-21T23:31:06.244Z,99443.80
2022-11-21T23:33:33.831Z,99435.89
2022-11-21T23:36:01.525Z,99430.88
2022-11-21T23:38:29.134Z,99426.06
2022-11-21T23:40:56.750Z,99422.73
2022-11-21T23:43:24.759Z,99422.86
2022-11-21T23:45:53.572Z,99420.92
2022-11-21T23:48:21.976Z,99422.50
2022-11-21T23:50:50.099Z,99423.58
2022-11-21T23:53:18.650Z,99421.86
2022-11-21T23:55:46.513Z,99421.21
2022-11-21T23:58:14.197Z,99416.56
